createdAt,value
2023-04-16T00:01:36.462Z,100493.25
2023-04-16T00:04:03.839Z,100496.91
2023-04-16T00:06:31.921Z,100487.72
2023-04-16T00:08:58.779Z,100488.81
2023-04-16T00:11:25.633Z,100483.34
2023-04-16T00:13:52.483Z,100483.50
2023-04-16T00:16:19.363Z,100485.97
2023-04-16T00:18:46.777Z,100491.13
2023-04-16T00:21:13.699Z,100482.25
2023-04-16T00:23:40.541Z,100479.94
2023-04-16T00:26:08.821Z,100476.22
2023-04-16T00:28:35.995Z,100479.13
2023-04-16T00:31:03.052Z,100482.97
2023-04-16T00:33:30.397Z,100482.75
2023-04-16T00:35:57.306Z,100480.41
2023-04-16T00:38:24.233Z,100476.44
2023-04-16T00:40:51.358Z,100476.38
2023-04-16T00:43:25.888Z,100475.22
2023-04-16T00:45:53.626Z,100472.72
2023-04-16T00:48:21.148Z,100471.06
2023-04-16T00:50:48.592Z,100480.31
2023-04-16T00:53:16.289Z,100478.84
2023-04-16T00:55:43.866Z,100484.09
2023-04-16T00:58:10.901Z,100473.50
2023-04-16T01:00:37.872Z,100465.41
2023-04-16T01:03:05.333Z,100465.00
2023-04-16T01:05:32.309Z,100469.50
2023-04-16T01:08:00.936Z,100470.53
2023-04-16T01:10:27.858Z,100469.34
2023-04-16T01:12:54.754Z,100466.59
2023-04-16T01:15:21.853Z,100469.41
2023-04-16T01:17:48.968Z,100470.13
2023-04-16T01:20:16.209Z,100465.34
2023-04-16T01:22:43.153Z,100458.97
2023-04-16T01:25:13.831Z,100450.59
2023-04-16T01:27:40.857Z,100443.06
2023-04-16T01:30:08.000Z,100439.44
2023-04-16T01:32:46.022Z,100447.19
2023-04-16T01:35:12.909Z,100446.94
2023-04-16T01:37:39.782Z,100442.38
2023-04-16T01:40:07.054Z,100441.66
2023-04-16T01:42:33.973Z,100446.19
2023-04-16T01:45:00.798Z,100442.63
2023-04-16T01:47:27.983Z,100446.59
2023-04-16T01:49:55.216Z,100438.63
2023-04-16T01:52:22.121Z,100430.00
2023-04-16T01:54:48.961Z,100441.06
2023-04-16T01:57:15.887Z,100449.41
2023-04-16T01:59:42.792Z,100449.69
2023-04-16T02:02:14.720Z,100446.44
2023-04-16T02:04:45.200Z,100443.66
2023-04-16T02:07:12.461Z,100438.94
2023-04-16T02:09:40.413Z,100432.03
2023-04-16T02:12:07.784Z,100434.84
2023-04-16T02:14:34.820Z,100426.75
2023-04-16T02:17:02.298Z,100439.69
2023-04-16T02:19:42.806Z,100426.75
2023-04-16T02:22:10.651Z,100424.41
2023-04-16T02:24:37.589Z,100429.47
2023-04-16T02:27:08.361Z,100424.19
2023-04-16T02:29:35.417Z,100421.91
2023-04-16T02:32:10.323Z,100427.09
2023-04-16T02:34:40.098Z,100423.59
2023-04-16T02:37:07.374Z,100418.06
2023-04-16T02:39:34.322Z,100417.50
2023-04-16T02:42:02.637Z,100413.75
2023-04-16T02:44:29.854Z,100416.09
2023-04-16T02:46:56.737Z,100409.50
2023-04-16T02:49:23.745Z,100408.22
2023-04-16T02:51:50.650Z,100411.25
2023-04-16T02:54:17.590Z,100401.25
2023-04-16T02:56:44.493Z,100409.81
2023-04-16T02:59:11.520Z,100401.44
2023-04-16T03:01:38.630Z,100404.03
2023-04-16T03:04:05.785Z,100410.97
2023-04-16T03:06:32.797Z,100410.41
2023-04-16T03:08:59.690Z,100413.22
2023-04-16T03:11:26.677Z,100416.41
2023-04-16T03:13:53.987Z,100415.00
2023-04-16T03:16:20.982Z,100417.38
2023-04-16T03:18:47.890Z,100412.50
2023-04-16T03:21:17.259Z,100404.88
2023-04-16T03:23:44.260Z,100410.25
2023-04-16T03:26:11.161Z,100418.53
2023-04-16T03:28:38.112Z,100417.91
2023-04-16T03:31:05.238Z,100418.06
2023-04-16T03:33:32.187Z,100429.34
2023-04-16T03:35:59.371Z,100424.16
2023-04-16T03:38:29.858Z,100416.78
2023-04-16T03:40:58.914Z,100428.72
2023-04-16T03:43:26.785Z,100420.34
2023-04-16T03:45:53.646Z,100421.16
2023-04-16T03:48:23.396Z,100426.75
2023-04-16T03:50:50.484Z,100437.28
2023-04-16T03:53:19.537Z,100438.66
2023-04-16T03:55:50.911Z,100432.19
2023-04-16T03:58:18.394Z,100439.50
2023-04-16T04:00:46.935Z,100441.56
2023-04-16T04:03:18.745Z,100440.91
2023-04-16T04:05:48.419Z,100443.13
2023-04-16T04:08:19.800Z,100439.25
2023-04-16T04:10:46.720Z,100444.72
2023-04-16T04:13:14.766Z,100436.00
2023-04-16T04:15:42.311Z,100433.09
2023-04-16T04:18:09.247Z,100422.50
2023-04-16T04:20:39.449Z,100427.19
2023-04-16T04:23:06.311Z,100425.44
2023-04-16T04:25:33.362Z,100436.75
2023-04-16T04:28:00.448Z,100449.31
2023-04-16T04:30:28.774Z,100457.00
2023-04-16T04:32:56.242Z,100450.09
2023-04-16T04:35:23.139Z,100450.84
2023-04-16T04:37:50.673Z,100447.41
2023-04-16T04:40:20.229Z,100454.81
2023-04-16T04:42:48.013Z,100461.88
2023-04-16T04:45:15.787Z,100456.75
2023-04-16T04:47:42.767Z,100457.03
2023-04-16T04:50:10.936Z,100463.88
2023-04-16T04:52:38.224Z,100459.66
2023-04-16T04:55:06.537Z,100460.03
2023-04-16T04:57:33.492Z,100451.00
2023-04-16T05:00:04.447Z,100448.72
2023-04-16T05:02:39.728Z,100458.25
2023-04-16T05:05:07.259Z,100454.81
2023-04-16T05:07:34.190Z,100454.34
2023-04-16T05:10:01.245Z,100458.66
2023-04-16T05:12:28.136Z,100450.97
2023-04-16T05:14:55.061Z,100454.28
2023-04-16T05:17:22.071Z,100455.00
2023-04-16T05:19:48.970Z,100457.13
2023-04-16T05:22:19.051Z,100449.59
2023-04-16T05:24:46.266Z,100443.22
2023-04-16T05:27:13.241Z,100452.31
2023-04-16T05:29:40.073Z,100448.38
2023-04-16T05:32:07.009Z,100447.81
2023-04-16T05:34:33.972Z,100446.69
2023-04-16T05:37:01.405Z,100446.00
2023-04-16T05:39:28.245Z,100431.19
2023-04-16T05:41:55.096Z,100431.34
2023-04-16T05:44:22.147Z,100430.78
2023-04-16T05:46:49.021Z,100426.19
2023-04-16T05:49:18.821Z,100429.91
2023-04-16T05:51:45.808Z,100422.78
2023-04-16T05:54:12.693Z,100424.56
2023-04-16T05:56:39.537Z,100434.03
2023-04-16T05:59:06.430Z,100436.84
2023-04-16T06:01:34.396Z,100436.31
2023-04-16T06:04:01.544Z,100430.25
2023-04-16T06:06:28.544Z,100431.59
2023-04-16T06:08:55.385Z,100429.94
2023-04-16T06:11:22.356Z,100433.78
2023-04-16T06:13:49.335Z,100431.22
2023-04-16T06:16:16.215Z,100425.38
2023-04-16T06:18:43.100Z,100424.97
2023-04-16T06:21:10.461Z,100430.91
2023-04-16T06:23:37.290Z,100425.59
2023-04-16T06:26:04.714Z,100429.03
2023-04-16T06:28:31.582Z,100420.63
2023-04-16T06:30:58.646Z,100423.09
2023-04-16T06:33:25.594Z,100434.53
2023-04-16T06:35:52.512Z,100432.63
2023-04-16T06:38:19.384Z,100437.19
2023-04-16T06:40:46.232Z,100438.75
2023-04-16T06:43:13.196Z,100442.19
2023-04-16T06:45:40.076Z,100439.09
2023-04-16T06:48:07.091Z,100433.47
2023-04-16T06:50:34.162Z,100424.13
2023-04-16T06:53:01.104Z,100422.84
2023-04-16T06:55:28.006Z,100413.03
2023-04-16T06:57:54.921Z,100404.81
2023-04-16T07:00:21.819Z,100404.41
2023-04-16T07:02:48.799Z,100424.31
2023-04-16T07:05:15.772Z,100432.44
2023-04-16T07:07:42.766Z,100433.91
2023-04-16T07:10:09.939Z,100434.66
2023-04-16T07:12:36.900Z,100434.09
2023-04-16T07:15:03.915Z,100436.13
2023-04-16T07:17:30.805Z,100450.38
2023-04-16T07:19:57.724Z,100437.59
2023-04-16T07:22:24.588Z,100432.63
2023-04-16T07:24:51.441Z,100423.63
2023-04-16T07:27:18.326Z,100434.22
2023-04-16T07:29:46.111Z,100431.44
2023-04-16T07:32:15.321Z,100437.75
2023-04-16T07:34:42.544Z,100429.41
2023-04-16T07:37:09.418Z,100435.81
2023-04-16T07:39:36.364Z,100436.13
2023-04-16T07:42:03.338Z,100428.47
2023-04-16T07:44:30.240Z,100430.16
2023-04-16T07:46:57.304Z,100425.63
2023-04-16T07:49:24.250Z,100422.53
2023-04-16T07:51:51.122Z,100416.84
2023-04-16T07:54:17.984Z,100421.25
2023-04-16T07:56:44.890Z,100417.16
2023-04-16T08:01:41.716Z,100407.97
2023-04-16T08:04:08.849Z,100410.66
2023-04-16T08:06:35.770Z,100417.34
2023-04-16T08:09:02.757Z,100413.63
2023-04-16T08:11:29.671Z,100425.19
2023-04-16T08:13:56.616Z,100418.56
2023-04-16T08:16:23.580Z,100413.03
2023-04-16T08:18:50.525Z,100421.03
2023-04-16T08:21:17.427Z,100417.19
2023-04-16T08:23:44.308Z,100418.56
2023-04-16T08:26:11.632Z,100413.72
2023-04-16T08:28:38.547Z,100406.09
2023-04-16T08:31:05.673Z,100415.72
2023-04-16T08:33:32.569Z,100406.50
2023-04-16T08:35:59.382Z,100403.59
2023-04-16T08:38:26.577Z,100397.50
2023-04-16T08:40:54.397Z,100402.28
2023-04-16T08:43:22.652Z,100391.38
2023-04-16T08:45:49.773Z,100387.69
2023-04-16T08:48:16.648Z,100380.59
2023-04-16T08:50:44.035Z,100369.16
2023-04-16T08:53:17.843Z,100379.75
2023-04-16T08:55:47.735Z,100370.69
2023-04-16T08:58:15.727Z,100370.31
2023-04-16T09:00:43.672Z,100359.47
2023-04-16T09:03:11.285Z,100369.13
2023-04-16T09:05:38.755Z,100371.53
2023-04-16T09:08:06.752Z,100360.88
2023-04-16T09:10:33.714Z,100352.09
2023-04-16T09:13:00.731Z,100353.31
2023-04-16T09:15:27.688Z,100353.38
2023-04-16T09:17:56.603Z,100347.03
2023-04-16T09:20:23.550Z,100340.91
2023-04-16T09:22:50.746Z,100338.91
2023-04-16T09:25:17.718Z,100350.31
2023-04-16T09:27:44.963Z,100338.47
2023-04-16T09:30:27.364Z,100340.53
2023-04-16T09:33:16.694Z,100322.19
2023-04-16T09:35:47.885Z,100323.03
2023-04-16T09:38:14.968Z,100326.16
2023-04-16T09:40:41.986Z,100323.50
2023-04-16T09:43:15.913Z,100321.22
2023-04-16T09:45:50.864Z,100323.13
2023-04-16T09:48:30.379Z,100313.41
2023-04-16T09:50:57.674Z,100317.84
2023-04-16T09:53:28.626Z,100311.44
2023-04-16T09:55:59.130Z,100301.66
2023-04-16T09:58:26.284Z,100307.69
2023-04-16T10:01:02.752Z,100300.88
2023-04-16T10:03:31.242Z,100307.81
2023-04-16T10:06:16.557Z,100305.78
2023-04-16T10:08:53.197Z,100318.44
2023-04-16T10:11:20.985Z,100320.50
2023-04-16T10:13:47.829Z,100309.78
2023-04-16T10:16:14.990Z,100319.63
2023-04-16T10:18:42.857Z,100322.44
2023-04-16T10:21:13.075Z,100333.69
2023-04-16T10:23:40.443Z,100322.84
2023-04-16T10:26:07.633Z,100328.66
2023-04-16T10:28:35.705Z,100333.19
2023-04-16T10:31:04.456Z,100332.50
2023-04-16T10:33:35.905Z,100327.00
2023-04-16T10:36:09.779Z,100318.94
2023-04-16T10:38:38.860Z,100324.88
2023-04-16T10:41:06.626Z,100318.00
2023-04-16T10:43:34.471Z,100331.56
2023-04-16T10:46:20.682Z,100326.94
2023-04-16T10:48:50.373Z,100328.69
2023-04-16T10:51:29.963Z,100328.81
2023-04-16T10:54:23.330Z,100333.44
2023-04-16T10:56:50.690Z,100328.28
2023-04-16T10:59:21.474Z,100347.34
2023-04-16T11:01:50.144Z,100351.91
2023-04-16T11:04:20.234Z,100363.09
2023-04-16T11:07:05.949Z,100353.81
2023-04-16T11:09:51.541Z,100355.09
2023-04-16T11:12:19.836Z,100342.03
2023-04-16T11:14:50.770Z,100335.59
2023-04-16T11:17:18.134Z,100331.00
2023-04-16T11:19:45.373Z,100324.59
2023-04-16T11:22:13.907Z,100327.03
2023-04-16T11:24:41.377Z,100326.78
2023-04-16T11:27:08.696Z,100318.50
2023-04-16T11:29:35.639Z,100318.78
2023-04-16T11:32:02.651Z,100300.13
2023-04-16T11:34:29.553Z,100295.31
2023-04-16T11:36:56.456Z,100296.72
2023-04-16T11:39:23.407Z,100285.03
2023-04-16T11:41:52.473Z,100276.94
2023-04-16T11:44:23.180Z,100281.00
2023-04-16T11:46:51.092Z,100278.38
2023-04-16T11:49:27.179Z,100294.13
2023-04-16T11:51:55.404Z,100296.38
2023-04-16T11:54:23.380Z,100295.19
2023-04-16T11:56:51.435Z,100308.25
2023-04-16T11:59:25.625Z,100294.34
2023-04-16T12:01:53.337Z,100289.03
2023-04-16T12:04:21.611Z,100295.28
2023-04-16T12:07:07.493Z,100300.31
2023-04-16T12:09:37.926Z,100308.38
2023-04-16T12:12:07.564Z,100311.53
2023-04-16T12:14:34.639Z,100330.16
2023-04-16T12:17:16.999Z,100322.44
2023-04-16T12:19:51.801Z,100320.28
2023-04-16T12:22:26.601Z,100316.84
2023-04-16T12:24:57.205Z,100309.19
2023-04-16T12:27:26.751Z,100308.41
2023-04-16T12:30:06.748Z,100312.94
2023-04-16T12:32:33.930Z,100317.28
2023-04-16T12:35:01.147Z,100320.22
2023-04-16T12:37:28.092Z,100320.16
2023-04-16T12:39:55.120Z,100324.94
2023-04-16T12:42:22.268Z,100329.84
2023-04-16T12:44:49.201Z,100324.38
2023-04-16T12:47:16.214Z,100333.13
2023-04-16T12:49:44.578Z,100332.81
2023-04-16T12:52:11.674Z,100330.34
2023-04-16T12:54:38.532Z,100329.66
2023-04-16T12:57:05.357Z,100317.28
2023-04-16T12:59:32.176Z,100323.41
2023-04-16T13:02:01.001Z,100304.88
2023-04-16T13:04:28.171Z,100294.31
2023-04-16T13:06:55.200Z,100300.69
2023-04-16T13:09:22.196Z,100291.34
2023-04-16T13:11:49.126Z,100292.53
2023-04-16T13:14:16.132Z,100290.47
2023-04-16T13:16:43.055Z,100278.09
2023-04-16T13:19:10.246Z,100279.00
2023-04-16T13:21:37.464Z,100265.44
2023-04-16T13:24:04.486Z,100257.81
2023-04-16T13:26:31.657Z,100255.84
2023-04-16T13:28:58.572Z,100257.19
2023-04-16T13:31:26.140Z,100260.47
2023-04-16T13:33:53.086Z,100257.06
2023-04-16T13:36:19.992Z,100257.78
2023-04-16T13:38:46.898Z,100246.25
2023-04-16T13:41:13.773Z,100258.00
2023-04-16T13:43:40.683Z,100259.47
2023-04-16T13:46:07.687Z,100250.81
2023-04-16T13:48:34.615Z,100262.13
2023-04-16T13:51:02.947Z,100255.06
2023-04-16T13:53:29.936Z,100259.22
2023-04-16T13:55:56.827Z,100257.72
2023-04-16T13:58:23.741Z,100263.91
2023-04-16T14:00:50.664Z,100272.19
2023-04-16T14:03:17.678Z,100268.53
2023-04-16T14:05:44.557Z,100264.28
2023-04-16T14:08:13.156Z,100265.19
2023-04-16T14:10:40.095Z,100261.97
2023-04-16T14:13:06.992Z,100271.53
2023-04-16T14:15:33.861Z,100271.69
2023-04-16T14:18:01.493Z,100274.09
2023-04-16T14:20:28.478Z,100279.94
2023-04-16T14:22:55.381Z,100278.69
2023-04-16T14:25:22.285Z,100286.03
2023-04-16T14:27:49.221Z,100281.84
2023-04-16T14:30:16.833Z,100289.38
2023-04-16T14:32:43.730Z,100290.13
2023-04-16T14:35:10.644Z,100297.91
2023-04-16T14:37:38.534Z,100313.41
2023-04-16T14:40:08.348Z,100320.03
2023-04-16T14:42:36.781Z,100325.63
2023-04-16T14:45:06.578Z,100320.19
2023-04-16T14:47:34.480Z,100328.88
2023-04-16T14:50:01.769Z,100321.34
2023-04-16T14:52:28.865Z,100317.13
2023-04-16T14:54:55.961Z,100323.41
2023-04-16T14:57:22.962Z,100324.69
2023-04-16T14:59:50.676Z,100312.72
2023-04-16T15:02:17.852Z,100313.47
2023-04-16T15:04:44.767Z,100305.28
2023-04-16T15:07:11.766Z,100309.03
2023-04-16T15:09:39.129Z,100302.56
2023-04-16T15:12:06.057Z,100303.34
2023-04-16T15:14:32.987Z,100305.94
2023-04-16T15:16:59.937Z,100301.72
2023-04-16T15:19:26.942Z,100311.22
2023-04-16T15:21:53.894Z,100311.38
2023-04-16T15:24:21.274Z,100305.50
2023-04-16T15:26:48.411Z,100312.22
2023-04-16T15:29:15.891Z,100310.59
2023-04-16T15:31:42.825Z,100309.47
2023-04-16T15:34:09.884Z,100308.97
2023-04-16T15:36:36.999Z,100314.34
2023-04-16T15:39:04.210Z,100310.16
2023-04-16T15:41:32.060Z,100304.03
2023-04-16T15:43:58.947Z,100309.78
2023-04-16T15:46:25.904Z,100302.41
2023-04-16T15:48:52.818Z,100310.28
2023-04-16T15:51:19.668Z,100309.81
2023-04-16T15:53:46.965Z,100304.47
2023-04-16T15:56:13.859Z,100307.41
2023-04-16T15:58:40.736Z,100304.06
2023-04-16T16:01:09.139Z,100296.66
2023-04-16T16:03:36.565Z,100300.59
2023-04-16T16:06:08.613Z,100288.84
2023-04-16T16:08:36.209Z,100288.97
2023-04-16T16:11:03.194Z,100283.38
2023-04-16T16:13:30.313Z,100289.94
2023-04-16T16:15:57.188Z,100296.72
2023-04-16T16:18:24.197Z,100295.44
2023-04-16T16:20:53.037Z,100297.84
2023-04-16T16:23:20.001Z,100287.66
2023-04-16T16:25:47.006Z,100292.50
2023-04-16T16:28:13.878Z,100300.81
2023-04-16T16:30:40.939Z,100298.03
2023-04-16T16:33:07.906Z,100291.47
2023-04-16T16:35:34.807Z,100294.31
2023-04-16T16:38:02.039Z,100299.44
2023-04-16T16:40:28.961Z,100297.69
2023-04-16T16:42:55.971Z,100305.53
2023-04-16T16:45:23.048Z,100304.81
2023-04-16T16:47:50.017Z,100304.81
2023-04-16T16:50:17.015Z,100312.66
2023-04-16T16:52:44.645Z,100323.50
2023-04-16T16:55:11.538Z,100332.50
2023-04-16T16:57:38.930Z,100332.44
2023-04-16T17:00:14.309Z,100339.56
2023-04-16T17:02:41.589Z,100340.56
2023-04-16T17:05:08.831Z,100350.31
2023-04-16T17:07:36.482Z,100345.81
2023-04-16T17:10:06.127Z,100352.00
2023-04-16T17:12:33.721Z,100352.22
2023-04-16T17:15:00.679Z,100358.63
2023-04-16T17:17:28.454Z,100355.03
2023-04-16T17:19:55.452Z,100361.00
2023-04-16T17:22:22.282Z,100356.81
2023-04-16T17:24:49.154Z,100358.56
2023-04-16T17:27:16.116Z,100362.94
2023-04-16T17:29:43.005Z,100363.75
2023-04-16T17:32:10.019Z,100366.28
2023-04-16T17:34:36.966Z,100376.06
2023-04-16T17:37:03.853Z,100371.75
2023-04-16T17:39:31.265Z,100367.25
2023-04-16T17:42:01.268Z,100373.50
2023-04-16T17:44:28.185Z,100373.41
2023-04-16T17:46:55.022Z,100371.72
2023-04-16T17:49:21.972Z,100376.22
2023-04-16T17:51:49.263Z,100381.28
2023-04-16T17:54:16.167Z,100386.59
2023-04-16T17:56:43.104Z,100391.69
2023-04-16T17:59:10.115Z,100393.06
2023-04-16T18:01:37.006Z,100383.56
2023-04-16T18:04:04.058Z,100390.19
2023-04-16T18:06:31.128Z,100395.25
2023-04-16T18:08:58.044Z,100396.50
2023-04-16T18:11:24.953Z,100397.06
2023-04-16T18:13:54.023Z,100396.41
2023-04-16T18:16:22.648Z,100392.84
2023-04-16T18:18:49.665Z,100397.84
2023-04-16T18:21:16.666Z,100401.94
2023-04-16T18:23:43.596Z,100408.69
2023-04-16T18:26:11.265Z,100413.53
2023-04-16T18:28:39.186Z,100407.34
2023-04-16T18:31:07.944Z,100403.75
2023-04-16T18:33:54.157Z,100405.19
2023-04-16T18:36:21.899Z,100399.75
2023-04-16T18:39:00.228Z,100391.94
2023-04-16T18:41:29.315Z,100399.00
2023-04-16T18:43:56.387Z,100397.44
2023-04-16T18:46:23.543Z,100392.38
2023-04-16T18:48:50.530Z,100397.50
2023-04-16T18:51:17.389Z,100397.63
2023-04-16T18:53:45.799Z,100398.16
2023-04-16T18:56:13.162Z,100390.81
2023-04-16T18:58:40.073Z,100390.75
2023-04-16T19:01:11.315Z,100391.50
2023-04-16T19:03:38.949Z,100390.06
2023-04-16T19:06:06.238Z,100390.00
2023-04-16T19:08:33.212Z,100379.28
2023-04-16T19:11:00.144Z,100372.03
2023-04-16T19:13:27.097Z,100365.41
2023-04-16T19:16:01.140Z,100379.63
2023-04-16T19:18:28.178Z,100372.91
2023-04-16T19:21:01.450Z,100370.06
2023-04-16T19:23:28.820Z,100363.78
2023-04-16T19:25:58.834Z,100376.44
2023-04-16T19:28:25.837Z,100370.34
2023-04-16T19:30:53.246Z,100372.78
2023-04-16T19:33:20.192Z,100370.09
2023-04-16T19:35:47.449Z,100365.00
2023-04-16T19:38:14.608Z,100359.28
2023-04-16T19:40:44.023Z,100364.63
2023-04-16T19:43:10.930Z,100364.59
2023-04-16T19:45:42.682Z,100363.22
2023-04-16T19:48:09.800Z,100362.69
2023-04-16T19:50:38.788Z,100364.19
2023-04-16T19:53:05.763Z,100368.34
2023-04-16T19:55:32.628Z,100372.59
2023-04-16T19:58:05.729Z,100368.44
2023-04-16T20:00:33.275Z,100370.31
2023-04-16T20:03:00.278Z,100368.72
2023-04-16T20:05:27.448Z,100382.34
2023-04-16T20:07:54.713Z,100374.81
2023-04-16T20:10:21.985Z,100359.91
2023-04-16T20:12:49.214Z,100368.25
2023-04-16T20:15:16.191Z,100368.50
2023-04-16T20:17:43.065Z,100367.44
2023-04-16T20:20:11.230Z,100365.47
2023-04-16T20:22:38.469Z,100351.84
2023-04-16T20:25:06.087Z,100358.75
2023-04-16T20:27:33.468Z,100353.22
2023-04-16T20:30:01.437Z,100343.53
2023-04-16T20:32:28.541Z,100343.16
2023-04-16T20:34:55.793Z,100336.81
2023-04-16T20:37:22.710Z,100337.63
2023-04-16T20:39:50.310Z,100336.50
2023-04-16T20:42:18.184Z,100342.63
2023-04-16T20:44:50.607Z,100349.63
2023-04-16T20:47:17.597Z,100353.78
2023-04-16T20:49:47.498Z,100343.88
2023-04-16T20:52:14.854Z,100343.03
2023-04-16T20:54:41.767Z,100340.91
2023-04-16T20:57:08.608Z,100346.50
2023-04-16T20:59:37.074Z,100347.81
2023-04-16T21:02:04.038Z,100338.69
2023-04-16T21:04:31.255Z,100343.69
2023-04-16T21:06:58.267Z,100357.28
2023-04-16T21:09:25.269Z,100350.41
2023-04-16T21:11:52.128Z,100363.22
2023-04-16T21:14:19.063Z,100359.94
2023-04-16T21:16:46.022Z,100357.06
2023-04-16T21:19:13.247Z,100357.91
2023-04-16T21:21:40.378Z,100364.06
2023-04-16T21:24:07.388Z,100364.66
2023-04-16T21:26:34.322Z,100367.44
2023-04-16T21:29:01.218Z,100366.09
2023-04-16T21:31:28.277Z,100370.38
2023-04-16T21:33:55.277Z,100357.72
2023-04-16T21:36:22.541Z,100366.09
2023-04-16T21:38:49.438Z,100381.59
2023-04-16T21:41:16.717Z,100372.72
2023-04-16T21:43:43.712Z,100368.84
2023-04-16T21:46:11.048Z,100376.53
2023-04-16T21:48:37.968Z,100369.56
2023-04-16T21:51:08.306Z,100377.16
2023-04-16T21:53:35.516Z,100373.31
2023-04-16T21:56:02.484Z,100385.03
2023-04-16T21:58:29.607Z,100380.63
2023-04-16T22:00:56.530Z,100376.44
2023-04-16T22:03:27.780Z,100371.38
2023-04-16T22:06:01.182Z,100376.53
2023-04-16T22:08:29.189Z,100377.19
2023-04-16T22:10:56.669Z,100379.19
2023-04-16T22:13:25.245Z,100385.16
2023-04-16T22:15:52.713Z,100388.34
2023-04-16T22:18:19.697Z,100379.13
2023-04-16T22:20:47.480Z,100382.78
2023-04-16T22:23:14.531Z,100370.22
2023-04-16T22:25:41.483Z,100373.34
2023-04-16T22:28:08.431Z,100370.91
2023-04-16T22:30:35.383Z,100368.91
2023-04-16T22:33:03.868Z,100366.13
2023-04-16T22:35:30.897Z,100360.72
2023-04-16T22:37:57.854Z,100341.38
2023-04-16T22:40:26.298Z,100345.84
2023-04-16T22:42:53.288Z,100347.66
2023-04-16T22:45:20.277Z,100344.63
2023-04-16T22:47:47.255Z,100339.34
2023-04-16T22:50:15.071Z,100332.50
2023-04-16T22:52:42.043Z,100329.19
2023-04-16T22:55:09.224Z,100326.16
2023-04-16T22:57:36.357Z,100322.06
2023-04-16T23:00:06.355Z,100326.81
2023-04-16T23:02:33.466Z,100330.09
2023-04-16T23:05:00.940Z,100322.59
2023-04-16T23:07:27.880Z,100327.81
2023-04-16T23:09:54.740Z,100328.47
2023-04-16T23:12:21.654Z,100331.06
2023-04-16T23:14:48.757Z,100321.22
2023-04-16T23:17:15.646Z,100331.34
2023-04-16T23:19:42.562Z,100339.22
2023-04-16T23:22:10.127Z,100341.66
2023-04-16T23:24:37.199Z,100329.41
2023-04-16T23:27:04.225Z,100338.38
2023-04-16T23:29:31.905Z,100335.69
2023-04-16T23:31:58.961Z,100328.88
2023-04-16T23:34:26.138Z,100334.06
2023-04-16T23:36:53.089Z,100331.66
2023-04-16T23:39:20.053Z,100327.06
2023-04-16T23:41:46.972Z,100322.44
2023-04-16T23:44:13.894Z,100315.25
2023-04-16T23:46:41.113Z,100312.31
2023-04-16T23:49:08.240Z,100294.50
2023-04-16T23:51:35.218Z,100283.38
2023-04-16T23:54:02.305Z,100248.47
2023-04-16T23:56:29.256Z,100224.34
2023-04-16T23:58:56.321Z,100200.28
